Time;durP1;ratioP1;P1;durP2;ratioP2;P2;SDS_P1;SDS_P2;PMS_P1;PMS_P2;Temp;Humidity;BMP_temperature;BMP_pressure;BME280_temperature;BME280_humidity;BME280_pressure;Samples;Min_cycle;Max_cycle;Signal;HPM_P1;HPM_P2
2022/06/11 00:01:21;;;;;;;4.85;4.15;;;;;;;;;;5115668;27;20080;-82
2022/06/11 00:03:49;;;;;;;5.28;4.00;;;;;;;;;;5133787;27;20048;-83
2022/06/11 00:06:15;;;;;;;5.43;3.95;;;;;;;;;;5133843;27;20022;-84
2022/06/11 00:08:40;;;;;;;5.95;3.92;;;;;;;;;;5133905;27;20042;-85
2022/06/11 00:11:07;;;;;;;4.80;3.95;;;;;;;;;;5133966;27;20026;-84
2022/06/11 00:13:33;;;;;;;5.03;3.85;;;;;;;;;;5133740;27;20113;-85
2022/06/11 00:16:01;;;;;;;4.18;3.65;;;;;;;;;;5133881;27;20023;-84
2022/06/11 00:18:27;;;;;;;4.85;3.85;;;;;;;;;;5130080;27;20020;-82
2022/06/11 00:20:52;;;;;;;4.72;3.70;;;;;;;;;;5131537;27;20388;-83
2022/06/11 00:23:18;;;;;;;5.82;3.80;;;;;;;;;;5133875;27;20024;-86
2022/06/11 00:25:44;;;;;;;5.03;4.07;;;;;;;;;;5114707;27;20097;-84
2022/06/11 00:28:09;;;;;;;6.20;4.40;;;;;;;;;;5133892;27;20110;-85
2022/06/11 00:30:35;;;;;;;5.60;4.20;;;;;;;;;;5133875;27;20023;-84
2022/06/11 00:33:06;;;;;;;5.00;3.97;;;;;;;;;;5132890;27;20952;-85
2022/06/11 00:35:33;;;;;;;5.07;4.20;;;;;;;;;;5132372;27;20537;-85
2022/06/11 00:37:58;;;;;;;5.20;4.15;;;;;;;;;;5114543;27;20041;-84
2022/06/11 00:40:27;;;;;;;5.03;4.25;;;;;;;;;;5132383;27;20031;-84
2022/06/11 00:42:53;;;;;;;5.95;4.25;;;;;;;;;;5133002;27;20076;-85
2022/06/11 00:45:34;;;;;;;5.15;4.13;;;;;;;;;;5133250;27;20026;-84
2022/06/11 00:48:12;;;;;;;7.20;4.40;;;;;;;;;;5130628;27;20527;-83
2022/06/11 00:50:43;;;;;;;4.97;4.05;;;;;;;;;;5131517;27;20036;-87
2022/06/11 00:53:34;;;;;;;6.03;4.22;;;;;;;;;;5132834;27;20106;-84
2022/06/11 00:56:03;;;;;;;4.70;3.63;;;;;;;;;;5098927;27;20035;-88
2022/06/11 00:58:34;;;;;;;4.75;3.78;;;;;;;;;;5133205;27;20374;-83
2022/06/11 01:01:01;;;;;;;5.47;4.47;;;;;;;;;;5133001;27;20061;-84
2022/06/11 01:03:37;;;;;;;5.60;3.97;;;;;;;;;;5132878;27;20386;-83
2022/06/11 01:06:16;;;;;;;5.75;4.18;;;;;;;;;;5132384;27;20020;-82
2022/06/11 01:08:48;;;;;;;5.65;4.40;;;;;;;;;;5130436;27;20026;-84
2022/06/11 01:11:33;;;;;;;5.40;4.07;;;;;;;;;;5114075;27;20517;-86
2022/06/11 01:14:24;;;;;;;5.60;4.05;;;;;;;;;;5132885;27;20431;-85
2022/06/11 01:16:52;;;;;;;4.97;3.92;;;;;;;;;;5113563;27;20072;-87
2022/06/11 01:19:29;;;;;;;4.95;3.78;;;;;;;;;;5131382;27;20110;-86
2022/06/11 01:22:34;;;;;;;4.97;3.85;;;;;;;;;;5112989;27;20037;-84
2022/06/11 01:25:05;;;;;;;6.78;4.30;;;;;;;;;;5110815;27;20530;-83
2022/06/11 01:27:33;;;;;;;5.93;4.53;;;;;;;;;;5131166;27;20019;-83
2022/06/11 01:30:16;;;;;;;6.78;4.93;;;;;;;;;;5129230;27;20478;-86
2022/06/11 01:32:58;;;;;;;6.55;4.72;;;;;;;;;;5131798;27;20412;-87
2022/06/11 01:35:36;;;;;;;7.00;4.95;;;;;;;;;;5131316;27;20035;-84
2022/06/11 01:38:06;;;;;;;7.38;4.88;;;;;;;;;;5130218;27;20060;-84
2022/06/11 01:40:53;;;;;;;8.35;5.55;;;;;;;;;;5131531;27;20026;-86
2022/06/11 01:43:39;;;;;;;5.60;4.68;;;;;;;;;;5130341;27;20030;-83
2022/06/11 01:46:21;;;;;;;7.63;5.07;;;;;;;;;;5130633;27;20072;-83
2022/06/11 01:49:06;;;;;;;5.55;4.60;;;;;;;;;;5131367;27;20027;-82
2022/06/11 01:52:00;;;;;;;6.18;4.68;;;;;;;;;;5132016;28;20019;-84
2022/06/11 01:54:28;;;;;;;5.57;4.68;;;;;;;;;;5131437;28;20380;-84
2022/06/11 01:57:15;;;;;;;6.57;4.32;;;;;;;;;;5113867;28;20023;-85
2022/06/11 01:59:46;;;;;;;7.35;4.72;;;;;;;;;;5131928;28;20027;-83
2022/06/11 02:02:40;;;;;;;5.68;4.03;;;;;;;;;;5113404;28;20031;-84
2022/06/11 02:05:24;;;;;;;5.30;4.30;;;;;;;;;;5130381;28;20023;-83
2022/06/11 02:08:20;;;;;;;5.15;4.25;;;;;;;;;;5130793;28;20032;-84
2022/06/11 02:10:54;;;;;;;5.70;4.40;;;;;;;;;;5112922;28;20152;-83
2022/06/11 02:13:29;;;;;;;5.03;4.10;;;;;;;;;;5130408;28;20463;-84
2022/06/11 02:16:06;;;;;;;5.20;4.32;;;;;;;;;;5113234;28;20035;-84
2022/06/11 02:18:32;;;;;;;6.65;4.63;;;;;;;;;;5131486;28;20375;-83
2022/06/11 02:21:08;;;;;;;6.88;4.25;;;;;;;;;;5131879;28;20042;-84
2022/06/11 02:23:38;;;;;;;5.82;4.75;;;;;;;;;;5131274;28;20027;-82
2022/06/11 02:26:14;;;;;;;5.78;4.45;;;;;;;;;;5128544;28;20035;-86
2022/06/11 02:28:44;;;;;;;4.60;3.80;;;;;;;;;;5113614;28;20030;-85
2022/06/11 02:31:14;;;;;;;5.50;3.90;;;;;;;;;;5131774;28;20395;-85
2022/06/11 02:33:42;;;;;;;5.35;4.22;;;;;;;;;;5132051;28;20042;-85
2022/06/11 02:36:10;;;;;;;5.32;4.45;;;;;;;;;;5113719;28;20050;-86
2022/06/11 02:38:36;;;;;;;4.55;3.70;;;;;;;;;;5132070;28;20031;-87
2022/06/11 02:41:07;;;;;;;4.82;3.83;;;;;;;;;;5113540;28;20031;-87
2022/06/11 02:43:33;;;;;;;5.00;4.00;;;;;;;;;;5129770;28;20058;-86
2022/06/11 02:45:58;;;;;;;5.05;3.92;;;;;;;;;;5131988;28;20055;-84
2022/06/11 02:48:24;;;;;;;5.07;3.80;;;;;;;;;;5131837;28;20100;-85
2022/06/11 02:50:51;;;;;;;4.72;4.03;;;;;;;;;;5130559;28;20424;-84
2022/06/11 02:53:17;;;;;;;5.13;4.47;;;;;;;;;;5130481;28;20513;-85
2022/06/11 02:55:45;;;;;;;4.13;3.55;;;;;;;;;;5130450;28;20027;-83
2022/06/11 02:58:12;;;;;;;4.18;3.75;;;;;;;;;;5108970;28;20039;-83
2022/06/11 03:00:42;;;;;;;5.80;4.30;;;;;;;;;;5105914;28;20106;-84
2022/06/11 03:03:08;;;;;;;5.28;3.90;;;;;;;;;;5124605;28;20080;-85
2022/06/11 03:05:36;;;;;;;4.75;3.83;;;;;;;;;;5128980;27;20031;-84
2022/06/11 03:08:04;;;;;;;5.38;3.70;;;;;;;;;;5130533;27;20417;-84
2022/06/11 03:10:30;;;;;;;4.38;3.50;;;;;;;;;;5127461;27;20027;-84
2022/06/11 03:12:56;;;;;;;4.25;3.65;;;;;;;;;;5128069;27;20023;-84
2022/06/11 03:15:23;;;;;;;3.80;3.35;;;;;;;;;;5129190;27;20029;-84
2022/06/11 03:17:50;;;;;;;3.45;3.03;;;;;;;;;;5112898;27;20034;-84
2022/06/11 03:20:17;;;;;;;4.95;3.50;;;;;;;;;;5114384;27;20019;-85
2022/06/11 03:22:43;;;;;;;4.47;3.75;;;;;;;;;;5132375;27;20027;-84
2022/06/11 03:25:09;;;;;;;4.60;3.70;;;;;;;;;;5113878;27;20054;-85
2022/06/11 03:27:38;;;;;;;4.80;3.83;;;;;;;;;;5115960;27;20071;-84
2022/06/11 03:30:06;;;;;;;5.22;3.80;;;;;;;;;;5133703;27;20096;-85
2022/06/11 03:32:32;;;;;;;5.45;3.60;;;;;;;;;;5116479;27;20027;-85
2022/06/11 03:34:57;;;;;;;4.32;3.58;;;;;;;;;;5116307;27;20035;-85
2022/06/11 03:37:23;;;;;;;4.20;3.45;;;;;;;;;;5133878;27;20039;-85
2022/06/11 03:39:49;;;;;;;4.38;3.70;;;;;;;;;;5134552;27;20023;-84
2022/06/11 03:42:15;;;;;;;4.25;3.60;;;;;;;;;;5115751;27;20473;-84
2022/06/11 03:44:40;;;;;;;4.97;4.10;;;;;;;;;;5134231;27;20019;-85
2022/06/11 03:47:06;;;;;;;4.35;3.60;;;;;;;;;;5134390;27;20027;-85
2022/06/11 03:49:32;;;;;;;4.78;3.92;;;;;;;;;;5134226;27;20019;-85
2022/06/11 03:51:57;;;;;;;5.05;3.80;;;;;;;;;;5134065;27;20034;-84
2022/06/11 03:54:24;;;;;;;4.45;3.67;;;;;;;;;;5130921;27;20023;-84
2022/06/11 03:56:51;;;;;;;4.70;4.10;;;;;;;;;;5132683;27;20110;-85
2022/06/11 03:59:17;;;;;;;4.05;3.50;;;;;;;;;;5131784;27;20023;-85
2022/06/11 04:01:45;;;;;;;5.05;3.90;;;;;;;;;;5133499;27;20474;-85
2022/06/11 04:04:13;;;;;;;4.03;3.60;;;;;;;;;;5133299;27;20030;-86
2022/06/11 04:06:59;;;;;;;4.78;4.03;;;;;;;;;;5131484;27;20481;-86
2022/06/11 04:09:31;;;;;;;5.20;3.67;;;;;;;;;;5132034;27;20343;-86
2022/06/11 04:11:57;;;;;;;4.82;3.75;;;;;;;;;;5115276;27;20054;-85
2022/06/11 04:14:23;;;;;;;4.80;3.72;;;;;;;;;;5115247;27;20019;-86
2022/06/11 04:16:52;;;;;;;4.60;3.50;;;;;;;;;;5114609;27;20026;-85
2022/06/11 04:19:32;;;;;;;4.55;3.58;;;;;;;;;;5132149;27;20061;-85
2022/06/11 04:21:59;;;;;;;4.82;4.03;;;;;;;;;;5114888;27;20035;-85
2022/06/11 04:24:26;;;;;;;4.03;3.35;;;;;;;;;;5131352;27;20463;-85
2022/06/11 04:26:54;;;;;;;4.88;3.80;;;;;;;;;;5132093;27;20027;-85
2022/06/11 04:29:29;;;;;;;4.53;3.65;;;;;;;;;;5133771;27;20026;-85
2022/06/11 04:31:57;;;;;;;4.88;3.88;;;;;;;;;;5132296;27;20086;-85
2022/06/11 04:34:24;;;;;;;6.88;5.82;;;;;;;;;;5133437;27;20127;-85
2022/06/11 04:36:51;;;;;;;6.07;5.25;;;;;;;;;;5133154;27;20035;-85
2022/06/11 04:39:21;;;;;;;4.70;3.95;;;;;;;;;;5133438;27;20502;-86
2022/06/11 04:41:47;;;;;;;5.25;3.80;;;;;;;;;;5133437;27;20522;-86
2022/06/11 04:44:13;;;;;;;4.97;4.18;;;;;;;;;;5133620;27;20019;-85
2022/06/11 04:46:38;;;;;;;4.68;3.97;;;;;;;;;;5133297;27;20022;-85
2022/06/11 04:49:05;;;;;;;5.30;3.88;;;;;;;;;;5133404;27;20031;-84
2022/06/11 04:51:30;;;;;;;6.20;4.95;;;;;;;;;;5114703;27;20114;-84
2022/06/11 04:53:57;;;;;;;7.00;4.85;;;;;;;;;;5132850;27;20135;-84
2022/06/11 04:56:25;;;;;;;6.47;4.60;;;;;;;;;;5133106;27;20548;-84
2022/06/11 04:58:52;;;;;;;5.78;4.57;;;;;;;;;;5114156;27;20676;-84
2022/06/11 05:01:18;;;;;;;5.57;4.22;;;;;;;;;;5132679;27;20027;-83
2022/06/11 05:03:44;;;;;;;5.45;4.68;;;;;;;;;;5131361;27;20071;-83
2022/06/11 05:06:12;;;;;;;5.25;4.45;;;;;;;;;;5132061;27;20038;-83
2022/06/11 05:08:37;;;;;;;5.38;4.20;;;;;;;;;;5132463;27;20019;-84
2022/06/11 05:11:05;;;;;;;5.45;4.20;;;;;;;;;;5132154;27;20035;-84
2022/06/11 05:13:30;;;;;;;5.97;4.57;;;;;;;;;;5114035;27;20031;-84
2022/06/11 05:15:58;;;;;;;5.88;4.30;;;;;;;;;;5113751;27;20488;-83
2022/06/11 05:18:25;;;;;;;5.40;4.32;;;;;;;;;;5132380;27;20363;-83
2022/06/11 05:20:51;;;;;;;5.32;4.20;;;;;;;;;;5132385;27;20023;-84
2022/06/11 05:23:17;;;;;;;5.15;3.90;;;;;;;;;;5113765;27;20478;-84
2022/06/11 05:25:44;;;;;;;7.20;3.83;;;;;;;;;;5132806;27;20100;-85
2022/06/11 05:28:15;;;;;;;5.63;3.95;;;;;;;;;;5112801;27;20023;-85
2022/06/11 05:30:41;;;;;;;5.40;4.15;;;;;;;;;;5132484;27;20459;-85
2022/06/11 05:33:07;;;;;;;4.88;4.13;;;;;;;;;;5132397;27;20441;-84
2022/06/11 05:35:33;;;;;;;4.47;3.85;;;;;;;;;;5112164;27;20033;-85
2022/06/11 05:38:03;;;;;;;4.28;3.58;;;;;;;;;;5130432;27;20027;-84
2022/06/11 05:40:32;;;;;;;4.68;3.47;;;;;;;;;;5126304;27;20035;-85
2022/06/11 05:42:58;;;;;;;4.30;3.80;;;;;;;;;;5129455;27;20514;-85
2022/06/11 05:45:29;;;;;;;4.65;3.70;;;;;;;;;;5113354;28;20027;-86
2022/06/11 05:47:57;;;;;;;4.30;3.80;;;;;;;;;;5128656;27;20022;-85
2022/06/11 05:50:26;;;;;;;3.15;2.30;;;;;;;;;;5126858;27;20023;-85
2022/06/11 05:52:57;;;;;;;3.13;2.25;;;;;;;;;;5125037;28;20073;-85
2022/06/11 05:55:27;;;;;;;3.13;2.33;;;;;;;;;;5128087;28;20027;-84
2022/06/11 05:57:55;;;;;;;2.72;2.10;;;;;;;;;;5129418;28;20463;-84
2022/06/11 06:00:23;;;;;;;2.72;2.20;;;;;;;;;;5127471;28;20104;-83
2022/06/11 06:02:49;;;;;;;2.10;1.63;;;;;;;;;;5126417;28;20023;-83
2022/06/11 06:05:18;;;;;;;2.97;1.85;;;;;;;;;;5126964;28;20031;-82
2022/06/11 06:07:43;;;;;;;2.40;1.83;;;;;;;;;;5128108;28;20063;-82
2022/06/11 06:10:09;;;;;;;2.70;1.98;;;;;;;;;;5128915;28;20084;-82
2022/06/11 06:12:36;;;;;;;2.95;1.88;;;;;;;;;;5124505;28;20063;-83
2022/06/11 06:15:09;;;;;;;2.00;1.75;;;;;;;;;;5125761;28;20027;-83
2022/06/11 06:17:35;;;;;;;2.42;1.88;;;;;;;;;;5122072;28;20356;-83
2022/06/11 06:20:01;;;;;;;2.28;1.50;;;;;;;;;;5121316;28;20269;-84
2022/06/11 06:22:26;;;;;;;1.73;1.50;;;;;;;;;;5123255;28;20019;-84
2022/06/11 06:24:52;;;;;;;2.42;1.40;;;;;;;;;;5103127;28;20023;-84
2022/06/11 06:27:17;;;;;;;2.20;1.60;;;;;;;;;;5126630;28;20031;-83
2022/06/11 06:29:43;;;;;;;2.05;1.70;;;;;;;;;;5125698;28;20413;-84
2022/06/11 06:32:08;;;;;;;3.75;1.83;;;;;;;;;;5125365;28;20130;-83
2022/06/11 06:34:34;;;;;;;2.20;1.70;;;;;;;;;;5124951;28;20030;-82
2022/06/11 06:36:59;;;;;;;2.55;1.70;;;;;;;;;;5127490;28;20051;-84
2022/06/11 06:39:24;;;;;;;2.70;1.75;;;;;;;;;;5127322;27;20027;-81
2022/06/11 06:41:50;;;;;;;3.13;2.00;;;;;;;;;;5129845;27;20023;-84
2022/06/11 06:44:16;;;;;;;3.95;2.35;;;;;;;;;;5126523;27;20034;-83
2022/06/11 06:46:42;;;;;;;4.00;2.72;;;;;;;;;;5132317;27;20023;-84
2022/06/11 06:49:08;;;;;;;5.22;3.83;;;;;;;;;;5134930;27;20071;-83
2022/06/11 06:51:34;;;;;;;4.38;2.97;;;;;;;;;;5133466;27;20023;-84
2022/06/11 06:54:00;;;;;;;4.50;3.20;;;;;;;;;;5135653;27;20035;-84
2022/06/11 06:56:29;;;;;;;3.83;2.92;;;;;;;;;;5130037;27;20035;-85
2022/06/11 06:58:57;;;;;;;3.55;2.40;;;;;;;;;;5110812;27;20056;-84
2022/06/11 07:01:23;;;;;;;3.38;2.60;;;;;;;;;;5130073;27;20019;-81
2022/06/11 07:03:49;;;;;;;3.35;1.98;;;;;;;;;;5109580;27;20024;-86
2022/06/11 07:06:14;;;;;;;6.22;2.47;;;;;;;;;;5132242;27;20029;-85
2022/06/11 07:08:39;;;;;;;3.67;2.35;;;;;;;;;;5129288;27;20015;-84
2022/06/11 07:11:05;;;;;;;1.83;1.50;;;;;;;;;;5110869;27;20031;-81
2022/06/11 07:13:32;;;;;;;1.83;1.60;;;;;;;;;;5114844;27;20037;-82
2022/06/11 07:15:58;;;;;;;2.30;1.48;;;;;;;;;;5131531;27;20023;-82
2022/06/11 07:18:30;;;;;;;4.75;1.90;;;;;;;;;;5114800;27;20023;-84
2022/06/11 07:20:59;;;;;;;1.75;1.50;;;;;;;;;;5114006;27;20034;-83
2022/06/11 07:23:33;;;;;;;1.60;1.40;;;;;;;;;;5132821;27;20027;-88
2022/06/11 07:25:59;;;;;;;1.98;1.50;;;;;;;;;;5129054;27;20098;-85
2022/06/11 07:28:37;;;;;;;5.10;4.50;;;;;;;;;;5116207;27;20050;-86
2022/06/11 07:31:04;;;;;;;2.30;1.65;;;;;;;;;;5115676;27;20023;-86
2022/06/11 07:33:29;;;;;;;1.70;1.50;;;;;;;;;;5116532;27;20023;-86
2022/06/11 07:35:56;;;;;;;2.25;1.50;;;;;;;;;;5116818;27;20069;-88
2022/06/11 07:38:22;;;;;;;2.38;1.60;;;;;;;;;;5115371;27;20540;-86
2022/06/11 07:40:48;;;;;;;2.63;1.70;;;;;;;;;;5136180;27;20023;-90
2022/06/11 07:43:15;;;;;;;2.65;1.85;;;;;;;;;;5117190;27;20030;-89
2022/06/11 07:45:42;;;;;;;2.55;1.80;;;;;;;;;;5113222;27;20035;-89
2022/06/11 07:48:09;;;;;;;5.93;2.17;;;;;;;;;;5114415;27;20019;-88
2022/06/11 07:50:37;;;;;;;8.73;2.17;;;;;;;;;;5116081;27;20106;-89
2022/06/11 07:53:04;;;;;;;5.63;2.13;;;;;;;;;;5134912;27;20023;-90
2022/06/11 07:55:30;;;;;;;3.88;2.10;;;;;;;;;;5114721;27;20027;-90
2022/06/11 07:57:57;;;;;;;5.85;2.25;;;;;;;;;;5116956;27;20028;-91
2022/06/11 08:00:27;;;;;;;2.78;2.13;;;;;;;;;;5117404;27;20058;-90
2022/06/11 08:02:52;;;;;;;;;;;;;;;;;;5136486;27;20031;-90
2022/06/11 08:05:18;;;;;;;2.20;1.85;;;;;;;;;;5146699;27;20282;-90
2022/06/11 08:07:43;;;;;;;2.35;1.70;;;;;;;;;;5116474;27;20099;-88
2022/06/11 08:10:11;;;;;;;3.60;1.83;;;;;;;;;;5134342;27;20033;-88
2022/06/11 08:12:36;;;;;;;2.08;1.60;;;;;;;;;;5109486;27;20047;-86
2022/06/11 08:15:03;;;;;;;2.17;1.63;;;;;;;;;;5129524;27;20078;-85
2022/06/11 08:17:30;;;;;;;2.63;1.63;;;;;;;;;;5115789;27;20027;-87
2022/06/11 08:19:56;;;;;;;2.22;1.67;;;;;;;;;;5115626;27;20455;-85
2022/06/11 08:22:21;;;;;;;2.80;1.80;;;;;;;;;;5132559;27;20031;-89
2022/06/11 08:24:48;;;;;;;2.08;1.85;;;;;;;;;;5115595;27;20072;-86
2022/06/11 08:27:14;;;;;;;2.92;2.25;;;;;;;;;;5133655;27;20117;-86
2022/06/11 08:29:39;;;;;;;4.28;2.95;;;;;;;;;;5115344;27;20510;-88
2022/06/11 08:32:07;;;;;;;2.50;2.00;;;;;;;;;;5115433;27;20035;-87
2022/06/11 08:34:41;;;;;;;2.47;1.85;;;;;;;;;;5113475;27;20470;-88
2022/06/11 08:37:08;;;;;;;2.63;1.80;;;;;;;;;;5113771;27;20059;-87
2022/06/11 08:39:34;;;;;;;2.97;2.15;;;;;;;;;;5132264;27;20072;-85
2022/06/11 08:42:00;;;;;;;2.70;1.90;;;;;;;;;;5113053;27;20038;-87
2022/06/11 08:44:27;;;;;;;1.90;1.60;;;;;;;;;;5110906;27;20027;-85
2022/06/11 08:46:55;;;;;;;4.38;2.97;;;;;;;;;;5128782;27;20036;-86
2022/06/11 08:49:30;;;;;;;2.83;1.98;;;;;;;;;;5115998;27;20072;-86
2022/06/11 08:52:23;;;;;;;2.13;1.70;;;;;;;;;;5133065;27;20019;-87
2022/06/11 08:54:48;;;;;;;2.08;1.60;;;;;;;;;;5106715;27;20058;-83
2022/06/11 08:57:24;;;;;;;2.85;1.50;;;;;;;;;;5126869;27;20815;-86
2022/06/11 09:00:05;;;;;;;2.10;1.73;;;;;;;;;;5132479;27;20099;-85
2022/06/11 09:02:30;;;;;;;3.20;1.90;;;;;;;;;;5132453;27;20356;-87
2022/06/11 09:04:58;;;;;;;2.30;1.80;;;;;;;;;;5128820;27;20046;-86
2022/06/11 09:07:37;;;;;;;2.40;1.90;;;;;;;;;;5130760;27;20383;-87
2022/06/11 09:10:21;;;;;;;2.13;1.60;;;;;;;;;;5110905;27;20152;-85
2022/06/11 09:13:07;;;;;;;2.50;2.00;;;;;;;;;;5127280;27;20106;-84
2022/06/11 09:15:51;;;;;;;2.58;1.90;;;;;;;;;;5108113;27;20072;-84
2022/06/11 09:18:51;;;;;;;3.90;1.90;;;;;;;;;;5130470;27;20068;-84
2022/06/11 09:21:22;;;;;;;;;;;;;;;;;;5080523;27;20495;-85
2022/06/11 09:24:26;;;;;;;3.67;1.80;;;;;;;;;;5113693;27;20359;-84
2022/06/11 09:27:14;;;;;;;2.33;1.95;;;;;;;;;;5111085;27;20031;-85
2022/06/11 09:30:12;;;;;;;2.30;2.00;;;;;;;;;;5126653;27;20046;-83
2022/06/11 09:32:57;;;;;;;3.13;1.90;;;;;;;;;;5126636;27;20471;-85
2022/06/11 09:35:58;;;;;;;2.45;1.80;;;;;;;;;;5126478;27;20130;-85
2022/06/11 09:38:41;;;;;;;2.88;1.80;;;;;;;;;;5121747;27;20032;-85
2022/06/11 09:41:19;;;;;;;1.90;1.60;;;;;;;;;;5128005;27;20023;-86
2022/06/11 09:44:17;;;;;;;1.73;1.58;;;;;;;;;;5131000;27;20347;-84
2022/06/11 09:46:52;;;;;;;2.25;1.75;;;;;;;;;;5095331;27;20039;-83
2022/06/11 09:49:24;;;;;;;2.30;1.27;;;;;;;;;;5129620;27;20023;-87
2022/06/11 09:51:57;;;;;;;2.25;1.73;;;;;;;;;;5129238;27;20034;-85
2022/06/11 09:54:29;;;;;;;1.85;1.60;;;;;;;;;;5129433;28;20049;-85
2022/06/11 09:57:26;;;;;;;4.18;2.17;;;;;;;;;;5127183;28;20023;-83
2022/06/11 09:59:59;;;;;;;1.58;1.38;;;;;;;;;;5112451;28;20026;-83
2022/06/11 10:05:47;;;;;;;3.65;1.70;;;;;;;;;;5130082;27;20038;-85
2022/06/11 10:08:35;;;;;;;2.20;1.77;;;;;;;;;;5127728;27;20019;-83
2022/06/11 10:11:04;;;;;;;3.28;2.40;;;;;;;;;;5123494;28;20016;-84
2022/06/11 10:13:37;;;;;;;3.40;2.60;;;;;;;;;;5131934;27;20053;-83
2022/06/11 10:16:12;;;;;;;2.45;1.92;;;;;;;;;;5137617;27;20019;-84
2022/06/11 10:18:39;;;;;;;2.30;2.00;;;;;;;;;;5134343;27;20475;-83
2022/06/11 10:21:10;;;;;;;2.22;2.03;;;;;;;;;;5136732;27;20044;-82
2022/06/11 10:24:09;;;;;;;3.25;2.30;;;;;;;;;;5114720;27;20020;-80
2022/06/11 10:26:45;;;;;;;2.53;2.20;;;;;;;;;;5114873;27;20037;-81
2022/06/11 10:29:34;;;;;;;2.78;2.20;;;;;;;;;;5136365;27;20284;-81
2022/06/11 10:32:15;;;;;;;2.40;1.80;;;;;;;;;;5115554;27;20023;-81
2022/06/11 10:34:47;;;;;;;1.88;1.70;;;;;;;;;;5114907;27;20080;-81
2022/06/11 10:37:28;;;;;;;2.20;1.75;;;;;;;;;;5134376;27;20039;-81
2022/06/11 10:40:03;;;;;;;2.22;1.75;;;;;;;;;;5115514;27;20096;-81
2022/06/11 10:42:32;;;;;;;2.83;2.10;;;;;;;;;;5112494;27;20090;-81
2022/06/11 10:44:58;;;;;;;3.03;2.50;;;;;;;;;;5134929;27;20027;-81
2022/06/11 10:47:34;;;;;;;4.45;3.50;;;;;;;;;;5135556;27;20048;-82
2022/06/11 10:50:07;;;;;;;2.35;2.00;;;;;;;;;;5130393;27;20034;-81
2022/06/11 10:52:50;;;;;;;2.50;2.08;;;;;;;;;;5112316;27;20027;-81
2022/06/11 10:55:28;;;;;;;2.45;1.92;;;;;;;;;;5135007;27;20064;-80
2022/06/11 10:57:54;;;;;;;2.63;1.58;;;;;;;;;;5134502;27;20088;-81
2022/06/11 11:00:26;;;;;;;4.10;1.92;;;;;;;;;;5135733;27;20451;-80
2022/06/11 11:03:04;;;;;;;2.85;2.00;;;;;;;;;;5131859;27;20019;-79
2022/06/11 11:05:58;;;;;;;2.60;1.90;;;;;;;;;;5131689;27;20120;-80
2022/06/11 11:08:23;;;;;;;2.63;1.60;;;;;;;;;;5135010;27;20026;-80
2022/06/11 11:10:52;;;;;;;3.40;1.67;;;;;;;;;;5134269;27;20808;-80
2022/06/11 11:13:38;;;;;;;2.10;1.80;;;;;;;;;;5134455;27;20027;-81
2022/06/11 11:16:15;;;;;;;4.50;1.70;;;;;;;;;;5133095;27;20030;-81
2022/06/11 11:18:53;;;;;;;3.15;2.03;;;;;;;;;;5133399;27;20490;-80
2022/06/11 11:21:34;;;;;;;2.95;1.80;;;;;;;;;;5132817;27;20070;-82
2022/06/11 11:24:18;;;;;;;1.50;1.30;;;;;;;;;;5132627;27;20055;-81
2022/06/11 11:27:25;;;;;;;1.90;1.30;;;;;;;;;;5133082;27;20416;-80
2022/06/11 11:29:55;;;;;;;2.10;1.13;;;;;;;;;;5133470;27;20104;-80
2022/06/11 11:32:38;;;;;;;1.80;1.60;;;;;;;;;;5114779;27;20029;-80
2022/06/11 11:35:18;;;;;;;1.88;1.20;;;;;;;;;;5135120;27;20050;-81
2022/06/11 11:37:45;;;;;;;1.48;1.30;;;;;;;;;;5134359;27;20035;-79
2022/06/11 11:40:31;;;;;;;1.30;1.20;;;;;;;;;;5134500;27;20482;-79
2022/06/11 11:43:02;;;;;;;1.65;1.40;;;;;;;;;;5111723;27;20031;-80
2022/06/11 11:45:41;;;;;;;1.60;1.30;;;;;;;;;;5109560;27;20492;-79
2022/06/11 11:48:14;;;;;;;1.92;1.10;;;;;;;;;;5110314;27;20079;-79
2022/06/11 11:50:41;;;;;;;1.42;1.33;;;;;;;;;;5110183;27;20035;-79
2022/06/11 11:53:24;;;;;;;1.73;1.40;;;;;;;;;;5129591;27;20057;-80
2022/06/11 11:56:00;;;;;;;1.55;1.15;;;;;;;;;;5128538;27;20024;-80
2022/06/11 11:58:40;;;;;;;1.70;1.40;;;;;;;;;;5115369;27;20033;-80
2022/06/11 12:01:07;;;;;;;;;;;;;;;;;;5132874;27;20031;-80
2022/06/11 12:04:02;;;;;;;1.75;1.40;;;;;;;;;;5115873;27;19956;-81
2022/06/11 12:06:41;;;;;;;1.67;1.40;;;;;;;;;;5133674;27;20079;-83
2022/06/11 12:09:21;;;;;;;2.88;1.30;;;;;;;;;;5132203;27;20049;-84
2022/06/11 12:12:19;;;;;;;1.90;1.23;;;;;;;;;;5134578;27;20035;-86
2022/06/11 12:14:52;;;;;;;1.45;1.20;;;;;;;;;;5114825;27;20034;-82
2022/06/11 12:17:36;;;;;;;1.30;1.17;;;;;;;;;;5132103;27;20428;-81
2022/06/11 12:20:11;;;;;;;1.30;1.20;;;;;;;;;;5131503;27;20084;-81
2022/06/11 12:22:47;;;;;;;1.40;1.00;;;;;;;;;;5135432;27;20023;-81
2022/06/11 12:25:32;;;;;;;1.33;1.05;;;;;;;;;;5132621;27;20083;-80
2022/06/11 12:28:00;;;;;;;0.80;0.80;;;;;;;;;;5133999;27;20157;-81
2022/06/11 12:30:27;;;;;;;1.90;1.00;;;;;;;;;;5133582;27;20456;-81
2022/06/11 12:32:53;;;;;;;1.10;1.00;;;;;;;;;;5112658;27;20035;-81
2022/06/11 12:35:41;;;;;;;3.55;1.30;;;;;;;;;;5132123;27;20078;-81
2022/06/11 12:38:40;;;;;;;2.50;1.40;;;;;;;;;;5112631;27;20032;-82
2022/06/11 12:41:23;;;;;;;3.40;1.58;;;;;;;;;;5089285;27;20094;-80
2022/06/11 12:44:16;;;;;;;3.05;1.70;;;;;;;;;;5129863;27;20038;-79
2022/06/11 12:46:46;;;;;;;5.07;2.17;;;;;;;;;;5128746;27;20027;-80
2022/06/11 12:49:18;;;;;;;7.50;2.65;;;;;;;;;;5132166;27;20360;-82
2022/06/11 12:51:50;;;;;;;5.00;2.70;;;;;;;;;;5109484;27;20019;-82
2022/06/11 12:54:54;;;;;;;5.57;2.75;;;;;;;;;;5129788;27;20448;-83
2022/06/11 12:57:41;;;;;;;4.00;2.53;;;;;;;;;;5132172;27;20023;-80
2022/06/11 13:00:22;;;;;;;3.45;2.38;;;;;;;;;;5130269;27;20034;-81
2022/06/11 13:03:27;;;;;;;4.20;3.33;;;;;;;;;;5112239;27;20031;-83
2022/06/11 13:06:14;;;;;;;4.53;3.25;;;;;;;;;;5110293;27;20391;-82
2022/06/11 13:08:56;;;;;;;5.03;3.50;;;;;;;;;;5125777;27;20535;-84
2022/06/11 13:11:27;;;;;;;3.65;3.17;;;;;;;;;;5130550;27;20027;-81
2022/06/11 13:14:08;;;;;;;4.00;3.35;;;;;;;;;;5123869;27;20034;-80
2022/06/11 13:16:34;;;;;;;4.38;3.65;;;;;;;;;;5127573;27;20040;-81
2022/06/11 13:19:09;;;;;;;6.15;4.10;;;;;;;;;;5129565;27;20023;-81
2022/06/11 13:21:46;;;;;;;4.03;3.53;;;;;;;;;;5130482;27;20027;-84
2022/06/11 13:24:30;;;;;;;6.05;3.50;;;;;;;;;;5125570;27;20456;-83
2022/06/11 13:27:31;;;;;;;3.95;3.22;;;;;;;;;;5107805;27;21295;-84
2022/06/11 13:30:09;;;;;;;3.50;2.90;;;;;;;;;;5111088;27;20475;-84
2022/06/11 13:32:47;;;;;;;3.55;2.80;;;;;;;;;;5128218;27;20019;-81
2022/06/11 13:35:34;;;;;;;7.15;5.53;;;;;;;;;;5110506;27;20023;-84
2022/06/11 13:38:22;;;;;;;7.53;5.55;;;;;;;;;;5125734;27;20114;-82
2022/06/11 13:40:54;;;;;;;9.23;4.43;;;;;;;;;;5123366;27;20487;-82
2022/06/11 13:43:36;;;;;;;5.00;3.65;;;;;;;;;;5125204;27;20023;-84
2022/06/11 13:46:19;;;;;;;4.47;2.92;;;;;;;;;;5126288;27;20023;-83
2022/06/11 13:49:17;;;;;;;3.70;2.83;;;;;;;;;;5127239;27;20034;-85
2022/06/11 13:51:48;;;;;;;4.05;2.90;;;;;;;;;;5125873;27;20051;-85
2022/06/11 13:57:18;;;;;;;4.10;3.20;;;;;;;;;;5126109;27;20481;-85
2022/06/11 13:59:53;;;;;;;3.22;2.47;;;;;;;;;;5123971;28;20023;-84
2022/06/11 14:02:43;;;;;;;3.35;2.95;;;;;;;;;;5127738;27;20034;-83
2022/06/11 14:05:16;;;;;;;4.10;2.75;;;;;;;;;;5126434;27;20102;-84
2022/06/11 14:07:43;;;;;;;3.13;2.75;;;;;;;;;;5111556;28;20403;-85
2022/06/11 14:10:22;;;;;;;3.80;3.40;;;;;;;;;;5131092;28;20049;-85
2022/06/11 14:12:49;;;;;;;4.85;3.30;;;;;;;;;;5130544;28;20020;-86
2022/06/11 14:15:25;;;;;;;6.05;3.00;;;;;;;;;;5131639;28;20027;-84
2022/06/11 14:17:55;;;;;;;4.63;3.38;;;;;;;;;;5129589;28;20478;-83
2022/06/11 14:20:25;;;;;;;2.97;2.65;;;;;;;;;;5131475;28;20079;-83
2022/06/11 14:22:54;;;;;;;2.53;2.33;;;;;;;;;;5125671;28;20027;-82
2022/06/11 14:25:37;;;;;;;2.78;2.30;;;;;;;;;;5127267;27;20072;-84
2022/06/11 14:28:14;;;;;;;2.45;2.03;;;;;;;;;;5129084;27;20023;-82
2022/06/11 14:30:45;;;;;;;1.92;1.67;;;;;;;;;;5125725;27;20039;-83
2022/06/11 14:33:11;;;;;;;2.97;2.50;;;;;;;;;;5126558;28;20023;-81
2022/06/11 14:36:00;;;;;;;3.20;2.65;;;;;;;;;;5110782;28;20118;-81
2022/06/11 14:38:44;;;;;;;3.42;2.65;;;;;;;;;;5126644;28;20037;-80
2022/06/11 14:41:09;;;;;;;3.80;2.58;;;;;;;;;;5127538;27;20026;-81
2022/06/11 14:43:53;;;;;;;2.80;2.35;;;;;;;;;;5106442;27;20026;-81
2022/06/11 14:46:31;;;;;;;2.80;2.28;;;;;;;;;;5126050;27;20091;-82
2022/06/11 14:48:59;;;;;;;3.08;2.25;;;;;;;;;;5105875;28;20023;-81
2022/06/11 14:51:32;;;;;;;3.28;2.20;;;;;;;;;;5106876;28;20031;-81
2022/06/11 14:54:19;;;;;;;3.72;2.25;;;;;;;;;;5125746;28;20542;-81
2022/06/11 14:57:02;;;;;;;2.53;2.05;;;;;;;;;;5124605;28;20506;-81
2022/06/11 14:59:52;;;;;;;2.65;1.98;;;;;;;;;;5104589;28;20028;-82
2022/06/11 15:02:22;;;;;;;2.58;2.15;;;;;;;;;;5111860;27;20028;-82
2022/06/11 15:05:13;;;;;;;2.70;2.05;;;;;;;;;;5103999;27;20100;-83
2022/06/11 15:07:53;;;;;;;2.33;2.10;;;;;;;;;;5130594;27;20047;-84
2022/06/11 15:10:32;;;;;;;1.90;1.60;;;;;;;;;;5113689;27;20060;-84
2022/06/11 15:13:21;;;;;;;3.92;2.28;;;;;;;;;;5114582;27;20030;-85
2022/06/11 15:15:54;;;;;;;4.13;1.90;;;;;;;;;;5133534;27;20064;-84
2022/06/11 15:18:44;;;;;;;2.85;2.10;;;;;;;;;;5112642;27;20054;-85
2022/06/11 15:21:27;;;;;;;3.47;1.98;;;;;;;;;;5134013;27;20471;-85
2022/06/11 15:24:01;;;;;;;2.33;1.40;;;;;;;;;;5133476;27;20038;-84
2022/06/11 15:26:30;;;;;;;2.90;1.50;;;;;;;;;;5134698;27;20023;-85